createdAt,value
2023-02-25T00:00:02.375Z,78.20180927994268
2023-02-25T00:15:02.023Z,77.55401610424794
2023-02-25T00:30:01.776Z,78.27056097971072
2023-02-25T00:45:02.466Z,79.59831556470488
2023-02-25T01:00:02.110Z,79.52135911157626
2023-02-25T01:15:01.778Z,79.29948175487257
2023-02-25T01:30:02.468Z,79.23459521138349
2023-02-25T01:45:02.176Z,79.65785520155524
2023-02-25T02:00:01.856Z,79.17315163969892
2023-02-25T02:15:02.535Z,79.2526558924259
2023-02-25T02:30:02.195Z,79.68840882005105
2023-02-25T02:45:01.893Z,80.33938537415627
2023-02-25T03:00:01.603Z,79.60910701653377
2023-02-25T03:15:02.323Z,79.96116909126306
2023-02-25T03:30:01.989Z,79.09320552411704
2023-02-25T03:45:01.722Z,80.09028365279386
2023-02-25T04:00:02.418Z,79.59745563451057
2023-02-25T04:15:02.097Z,79.7925945541239
2023-02-25T04:30:01.780Z,79.95546704434332
2023-02-25T04:45:02.463Z,79.13840465873717
2023-02-25T05:00:02.123Z,80.02785115528418
2023-02-25T05:15:01.796Z,79.74858332845051
2023-02-25T05:30:02.245Z,80.4801855973713
2023-02-25T05:45:01.972Z,80.3695697844073
2023-02-25T06:00:01.688Z,80.00961432358386
2023-02-25T06:15:02.372Z,79.81905817695075
2023-02-25T06:30:02.022Z,80.48679978572376
2023-02-25T06:45:01.717Z,80.73644137737372
2023-02-25T07:00:02.391Z,80.00178122776465
2023-02-25T07:15:02.085Z,80.71516293099648
2023-02-25T07:30:01.775Z,80.06941139537771
2023-02-25T07:45:02.472Z,79.94530110007994
2023-02-25T08:00:02.163Z,80.35433878767641
2023-02-25T08:15:02.009Z,80.68191073059322
2023-02-25T08:30:01.763Z,79.79566349250928
2023-02-25T08:45:02.446Z,78.06351360542952
2023-02-25T09:00:03.353Z,75.36233072912661
2023-02-25T09:15:01.931Z,74.23207478942047
2023-02-25T09:30:01.634Z,72.39865850057919
2023-02-25T09:45:02.291Z,70.66793334336913
2023-02-25T10:00:02.011Z,67.94399937350137
2023-02-25T10:15:01.662Z,67.61858540021574
2023-02-25T10:30:02.370Z,66.6760353121163
2023-02-25T10:45:02.044Z,63.91704535461509
2023-02-25T11:00:01.786Z,62.671124569051884
2023-02-25T11:15:02.444Z,61.37230347772882
2023-02-25T11:30:02.154Z,59.4179655015788
2023-02-25T11:45:01.821Z,58.73610940978329
2023-02-25T12:00:02.504Z,58.50852373083358
2023-02-25T12:15:02.178Z,57.179983531009
2023-02-25T12:30:01.889Z,57.66121547811571
2023-02-25T12:45:02.548Z,56.40313025210161
2023-02-25T13:00:02.196Z,54.601779457141646
2023-02-25T13:15:01.878Z,54.014640174050804
2023-02-25T13:30:02.649Z,53.63415078774732
2023-02-25T13:45:02.331Z,52.99396494950265
2023-02-25T14:00:01.966Z,54.14872560811958
2023-02-25T14:15:01.676Z,54.20119051992502
2023-02-25T14:30:02.387Z,53.35495707260231
2023-02-25T14:45:02.072Z,54.13323875932093
2023-02-25T15:00:01.703Z,53.8780961081538
2023-02-25T15:15:02.331Z,54.116393235956195
2023-02-25T15:30:02.100Z,54.167359037889575
2023-02-25T15:45:01.776Z,53.81581928681454
2023-02-25T16:00:02.486Z,54.28480444442586
2023-02-25T16:15:02.163Z,54.207510219263256
2023-02-25T16:30:01.832Z,53.258002869169125
2023-02-25T16:45:02.485Z,54.59021873592011
2023-02-25T17:00:02.124Z,53.44700420254804
2023-02-25T17:15:01.774Z,52.63439445056708
2023-02-25T17:30:02.484Z,53.55169408938979
2023-02-25T17:45:02.129Z,54.59650867678746
2023-02-25T18:00:01.779Z,56.34810887967276
2023-02-25T18:15:02.457Z,57.16357103436637
2023-02-25T18:30:02.105Z,57.55222812220038
2023-02-25T18:45:01.803Z,58.12092783155571
2023-02-25T19:00:02.489Z,66.05200411525128
2023-02-25T19:15:02.189Z,66.40817534514794
2023-02-25T19:30:01.853Z,68.10169084947373
2023-02-25T19:45:02.494Z,68.09374085378072
2023-02-25T20:00:02.168Z,68.22440382473422
2023-02-25T20:15:01.825Z,68.9289762880308
2023-02-25T20:30:02.676Z,69.17541527945122
2023-02-25T20:45:02.407Z,69.48384919426222
2023-02-25T21:00:02.135Z,69.49699685800768
2023-02-25T21:15:01.973Z,69.74400238191433
2023-02-25T21:30:01.700Z,69.87603649831456
2023-02-25T21:45:02.374Z,69.6785216859869
2023-02-25T22:00:02.049Z,70.44791341189693
2023-02-25T22:15:01.768Z,71.24992370646173
2023-02-25T22:30:02.457Z,70.00754836961495
2023-02-25T22:45:02.171Z,70.00451367062388
2023-02-25T23:00:01.870Z,69.52409360721443
2023-02-25T23:15:02.555Z,70.20745293287432
2023-02-25T23:30:02.208Z,69.89303201188746
2023-02-25T23:45:01.856Z,69.19497534685145
